sensor_id;sensor_type;location;lat;lon;timestamp;P1;durP1;ratioP1;P2;durP2;ratioP2
12906;SDS011;6521;50.498;8.474;2023-10-09T00:01:07;3.87;;;3.13;;
12906;SDS011;6521;50.498;8.474;2023-10-09T00:03:44;4.73;;;3.20;;
12906;SDS011;6521;50.498;8.474;2023-10-09T00:06:16;3.40;;;3.10;;
12906;SDS011;6521;50.498;8.474;2023-10-09T00:08:47;5.43;;;3.00;;
12906;SDS011;6521;50.498;8.474;2023-10-09T00:11:21;3.70;;;3.10;;
12906;SDS011;6521;50.498;8.474;2023-10-09T00:13:52;4.57;;;3.73;;
12906;SDS011;6521;50.498;8.474;2023-10-09T00:16:30;5.63;;;3.20;;
12906;SDS011;6521;50.498;8.474;2023-10-09T00:19:11;5.33;;;3.37;;
12906;SDS011;6521;50.498;8.474;2023-10-09T00:21:47;6.47;;;3.43;;
12906;SDS011;6521;50.498;8.474;2023-10-09T00:24:19;5.17;;;3.90;;
12906;SDS011;6521;50.498;8.474;2023-10-09T00:26:54;3.53;;;3.23;;
12906;SDS011;6521;50.498;8.474;2023-10-09T00:29:44;11.50;;;4.27;;
12906;SDS011;6521;50.498;8.474;2023-10-09T00:32:16;5.10;;;3.27;;
12906;SDS011;6521;50.498;8.474;2023-10-09T00:34:48;8.47;;;4.47;;
12906;SDS011;6521;50.498;8.474;2023-10-09T00:37:21;8.77;;;3.87;;
12906;SDS011;6521;50.498;8.474;2023-10-09T00:39:56;6.20;;;4.20;;
12906;SDS011;6521;50.498;8.474;2023-10-09T00:42:27;6.47;;;4.30;;
12906;SDS011;6521;50.498;8.474;2023-10-09T00:45:03;7.50;;;4.30;;
12906;SDS011;6521;50.498;8.474;2023-10-09T00:47:35;6.57;;;4.17;;
12906;SDS011;6521;50.498;8.474;2023-10-09T00:50:11;9.30;;;4.50;;
12906;SDS011;6521;50.498;8.474;2023-10-09T00:52:49;8.20;;;4.00;;
12906;SDS011;6521;50.498;8.474;2023-10-09T00:55:24;13.07;;;5.43;;
12906;SDS011;6521;50.498;8.474;2023-10-09T00:58:09;8.47;;;4.30;;
12906;SDS011;6521;50.498;8.474;2023-10-09T01:00:45;13.80;;;4.60;;
12906;SDS011;6521;50.498;8.474;2023-10-09T01:03:16;6.37;;;4.73;;
12906;SDS011;6521;50.498;8.474;2023-10-09T01:05:49;8.67;;;4.20;;
12906;SDS011;6521;50.498;8.474;2023-10-09T01:08:23;14.87;;;4.63;;
12906;SDS011;6521;50.498;8.474;2023-10-09T01:10:59;9.33;;;4.77;;
12906;SDS011;6521;50.498;8.474;2023-10-09T01:13:40;7.20;;;4.57;;
12906;SDS011;6521;50.498;8.474;2023-10-09T01:16:21;7.93;;;4.20;;
12906;SDS011;6521;50.498;8.474;2023-10-09T01:18:54;6.73;;;4.30;;
12906;SDS011;6521;50.498;8.474;2023-10-09T01:21:27;8.57;;;4.83;;
12906;SDS011;6521;50.498;8.474;2023-10-09T01:24:01;17.40;;;6.50;;
12906;SDS011;6521;50.498;8.474;2023-10-09T01:29:10;8.23;;;5.03;;
12906;SDS011;6521;50.498;8.474;2023-10-09T01:31:47;9.47;;;5.17;;
12906;SDS011;6521;50.498;8.474;2023-10-09T01:34:30;15.37;;;5.37;;
12906;SDS011;6521;50.498;8.474;2023-10-09T01:37:20;11.23;;;5.80;;
12906;SDS011;6521;50.498;8.474;2023-10-09T01:39:59;9.67;;;6.27;;
12906;SDS011;6521;50.498;8.474;2023-10-09T01:42:47;12.83;;;6.03;;
12906;SDS011;6521;50.498;8.474;2023-10-09T01:45:17;10.67;;;5.47;;
12906;SDS011;6521;50.498;8.474;2023-10-09T01:47:51;11.70;;;5.80;;
12906;SDS011;6521;50.498;8.474;2023-10-09T01:50:22;11.10;;;6.07;;
12906;SDS011;6521;50.498;8.474;2023-10-09T01:53:01;9.27;;;5.70;;
12906;SDS011;6521;50.498;8.474;2023-10-09T01:55:32;10.67;;;5.87;;
12906;SDS011;6521;50.498;8.474;2023-10-09T01:58:11;14.33;;;7.40;;
12906;SDS011;6521;50.498;8.474;2023-10-09T02:00:54;8.87;;;6.33;;
12906;SDS011;6521;50.498;8.474;2023-10-09T02:03:32;10.67;;;6.20;;
12906;SDS011;6521;50.498;8.474;2023-10-09T02:06:06;15.77;;;8.07;;
12906;SDS011;6521;50.498;8.474;2023-10-09T02:08:55;20.33;;;8.07;;
12906;SDS011;6521;50.498;8.474;2023-10-09T02:11:26;16.67;;;7.97;;
12906;SDS011;6521;50.498;8.474;2023-10-09T02:14:11;18.17;;;8.00;;
12906;SDS011;6521;50.498;8.474;2023-10-09T02:16:52;16.67;;;8.13;;
12906;SDS011;6521;50.498;8.474;2023-10-09T02:19:41;17.90;;;7.23;;
12906;SDS011;6521;50.498;8.474;2023-10-09T02:22:13;11.73;;;7.07;;
12906;SDS011;6521;50.498;8.474;2023-10-09T02:24:44;13.90;;;7.27;;
12906;SDS011;6521;50.498;8.474;2023-10-09T02:27:19;11.73;;;7.40;;
12906;SDS011;6521;50.498;8.474;2023-10-09T02:30:08;11.97;;;7.87;;
12906;SDS011;6521;50.498;8.474;2023-10-09T02:32:57;15.20;;;7.37;;
12906;SDS011;6521;50.498;8.474;2023-10-09T02:35:39;11.23;;;6.93;;
12906;SDS011;6521;50.498;8.474;2023-10-09T02:38:12;14.07;;;7.40;;
12906;SDS011;6521;50.498;8.474;2023-10-09T02:40:47;9.60;;;7.20;;
12906;SDS011;6521;50.498;8.474;2023-10-09T02:43:33;12.73;;;7.80;;
12906;SDS011;6521;50.498;8.474;2023-10-09T02:46:15;11.40;;;7.97;;
12906;SDS011;6521;50.498;8.474;2023-10-09T02:48:50;15.27;;;7.23;;
12906;SDS011;6521;50.498;8.474;2023-10-09T02:51:23;13.60;;;6.80;;
12906;SDS011;6521;50.498;8.474;2023-10-09T02:54:02;12.90;;;6.40;;
12906;SDS011;6521;50.498;8.474;2023-10-09T02:56:49;12.23;;;7.00;;
12906;SDS011;6521;50.498;8.474;2023-10-09T02:59:26;11.80;;;6.50;;
12906;SDS011;6521;50.498;8.474;2023-10-09T03:01:57;11.03;;;7.23;;
12906;SDS011;6521;50.498;8.474;2023-10-09T03:04:30;12.73;;;6.80;;
12906;SDS011;6521;50.498;8.474;2023-10-09T03:07:00;11.17;;;7.10;;
12906;SDS011;6521;50.498;8.474;2023-10-09T03:09:32;17.30;;;8.53;;
12906;SDS011;6521;50.498;8.474;2023-10-09T03:12:04;11.23;;;8.43;;
12906;SDS011;6521;50.498;8.474;2023-10-09T03:14:37;14.37;;;8.60;;
12906;SDS011;6521;50.498;8.474;2023-10-09T03:17:12;12.43;;;7.10;;
12906;SDS011;6521;50.498;8.474;2023-10-09T03:19:42;14.53;;;8.07;;
12906;SDS011;6521;50.498;8.474;2023-10-09T03:22:14;14.90;;;7.53;;
12906;SDS011;6521;50.498;8.474;2023-10-09T03:24:46;13.07;;;7.30;;
12906;SDS011;6521;50.498;8.474;2023-10-09T03:27:17;13.30;;;7.13;;
12906;SDS011;6521;50.498;8.474;2023-10-09T03:29:48;12.47;;;7.03;;
12906;SDS011;6521;50.498;8.474;2023-10-09T03:32:24;12.97;;;7.27;;
12906;SDS011;6521;50.498;8.474;2023-10-09T03:34:54;14.10;;;7.27;;
12906;SDS011;6521;50.498;8.474;2023-10-09T03:37:25;15.37;;;7.30;;
12906;SDS011;6521;50.498;8.474;2023-10-09T03:40:06;16.73;;;7.53;;
12906;SDS011;6521;50.498;8.474;2023-10-09T03:42:38;9.83;;;7.37;;
12906;SDS011;6521;50.498;8.474;2023-10-09T03:45:12;12.50;;;7.80;;
12906;SDS011;6521;50.498;8.474;2023-10-09T03:47:48;13.68;;;7.63;;
12906;SDS011;6521;50.498;8.474;2023-10-09T03:50:19;11.77;;;6.93;;
12906;SDS011;6521;50.498;8.474;2023-10-09T03:53:06;12.63;;;6.87;;
12906;SDS011;6521;50.498;8.474;2023-10-09T03:55:37;11.90;;;7.77;;
12906;SDS011;6521;50.498;8.474;2023-10-09T03:58:09;11.27;;;7.40;;
12906;SDS011;6521;50.498;8.474;2023-10-09T04:00:45;13.80;;;6.97;;
12906;SDS011;6521;50.498;8.474;2023-10-09T04:03:16;13.00;;;7.10;;
12906;SDS011;6521;50.498;8.474;2023-10-09T04:05:47;7.53;;;6.07;;
12906;SDS011;6521;50.498;8.474;2023-10-09T04:08:18;11.57;;;6.33;;
12906;SDS011;6521;50.498;8.474;2023-10-09T04:10:51;14.87;;;7.07;;
12906;SDS011;6521;50.498;8.474;2023-10-09T04:13:22;19.03;;;7.00;;
12906;SDS011;6521;50.498;8.474;2023-10-09T04:15:53;12.60;;;7.47;;
12906;SDS011;6521;50.498;8.474;2023-10-09T04:18:26;12.70;;;7.47;;
12906;SDS011;6521;50.498;8.474;2023-10-09T04:21:04;16.23;;;7.90;;
12906;SDS011;6521;50.498;8.474;2023-10-09T04:24:04;15.40;;;8.07;;
12906;SDS011;6521;50.498;8.474;2023-10-09T04:26:44;10.37;;;7.33;;
12906;SDS011;6521;50.498;8.474;2023-10-09T04:29:16;12.17;;;6.73;;
12906;SDS011;6521;50.498;8.474;2023-10-09T04:32:08;14.90;;;8.30;;
12906;SDS011;6521;50.498;8.474;2023-10-09T04:34:46;11.70;;;7.40;;
12906;SDS011;6521;50.498;8.474;2023-10-09T04:37:20;7.63;;;6.23;;
12906;SDS011;6521;50.498;8.474;2023-10-09T04:40:08;13.97;;;6.10;;
12906;SDS011;6521;50.498;8.474;2023-10-09T04:42:43;13.35;;;6.78;;
12906;SDS011;6521;50.498;8.474;2023-10-09T04:45:28;8.05;;;6.57;;
12906;SDS011;6521;50.498;8.474;2023-10-09T04:48:13;9.53;;;6.00;;
12906;SDS011;6521;50.498;8.474;2023-10-09T04:51:03;10.82;;;6.53;;
12906;SDS011;6521;50.498;8.474;2023-10-09T04:54:05;9.73;;;5.95;;
12906;SDS011;6521;50.498;8.474;2023-10-09T04:56:45;21.38;;;6.05;;
12906;SDS011;6521;50.498;8.474;2023-10-09T04:59:22;16.13;;;6.43;;
12906;SDS011;6521;50.498;8.474;2023-10-09T05:01:56;13.40;;;6.90;;
12906;SDS011;6521;50.498;8.474;2023-10-09T05:04:29;9.70;;;6.07;;
12906;SDS011;6521;50.498;8.474;2023-10-09T05:07:11;9.00;;;5.85;;
12906;SDS011;6521;50.498;8.474;2023-10-09T05:09:53;10.80;;;5.25;;
12906;SDS011;6521;50.498;8.474;2023-10-09T05:12:34;9.05;;;5.78;;
12906;SDS011;6521;50.498;8.474;2023-10-09T05:15:04;10.70;;;5.60;;
12906;SDS011;6521;50.498;8.474;2023-10-09T05:17:39;8.07;;;5.85;;
12906;SDS011;6521;50.498;8.474;2023-10-09T05:20:09;7.97;;;5.70;;
12906;SDS011;6521;50.498;8.474;2023-10-09T05:22:58;10.10;;;5.13;;
12906;SDS011;6521;50.498;8.474;2023-10-09T05:25:30;11.93;;;5.28;;
12906;SDS011;6521;50.498;8.474;2023-10-09T05:28:21;20.40;;;5.85;;
12906;SDS011;6521;50.498;8.474;2023-10-09T05:31:11;13.55;;;6.28;;
12906;SDS011;6521;50.498;8.474;2023-10-09T05:34:01;9.90;;;6.55;;
12906;SDS011;6521;50.498;8.474;2023-10-09T05:36:33;10.30;;;5.82;;
12906;SDS011;6521;50.498;8.474;2023-10-09T05:39:05;9.23;;;5.93;;
12906;SDS011;6521;50.498;8.474;2023-10-09T05:42:08;9.95;;;6.38;;
12906;SDS011;6521;50.498;8.474;2023-10-09T05:44:40;11.30;;;6.00;;
12906;SDS011;6521;50.498;8.474;2023-10-09T05:47:50;13.20;;;5.95;;
12906;SDS011;6521;50.498;8.474;2023-10-09T05:50:34;9.80;;;5.40;;
12906;SDS011;6521;50.498;8.474;2023-10-09T05:53:08;13.80;;;6.00;;
12906;SDS011;6521;50.498;8.474;2023-10-09T05:55:47;11.65;;;5.95;;
12906;SDS011;6521;50.498;8.474;2023-10-09T05:58:36;10.88;;;5.47;;
12906;SDS011;6521;50.498;8.474;2023-10-09T06:01:33;10.95;;;5.53;;
12906;SDS011;6521;50.498;8.474;2023-10-09T06:04:22;11.20;;;5.88;;
12906;SDS011;6521;50.498;8.474;2023-10-09T06:07:04;15.20;;;5.97;;
12906;SDS011;6521;50.498;8.474;2023-10-09T06:09:43;13.43;;;6.22;;
12906;SDS011;6521;50.498;8.474;2023-10-09T06:12:26;12.32;;;6.05;;
12906;SDS011;6521;50.498;8.474;2023-10-09T06:15:03;9.75;;;5.47;;
12906;SDS011;6521;50.498;8.474;2023-10-09T06:17:54;13.77;;;5.72;;
12906;SDS011;6521;50.498;8.474;2023-10-09T06:20:30;10.25;;;5.20;;
12906;SDS011;6521;50.498;8.474;2023-10-09T06:23:21;10.98;;;6.47;;
12906;SDS011;6521;50.498;8.474;2023-10-09T06:26:12;13.85;;;5.88;;
12906;SDS011;6521;50.498;8.474;2023-10-09T06:28:54;8.40;;;5.53;;
12906;SDS011;6521;50.498;8.474;2023-10-09T06:31:45;11.40;;;5.80;;
12906;SDS011;6521;50.498;8.474;2023-10-09T06:34:28;14.23;;;5.93;;
12906;SDS011;6521;50.498;8.474;2023-10-09T06:37:06;10.77;;;5.70;;
12906;SDS011;6521;50.498;8.474;2023-10-09T06:39:52;11.27;;;5.00;;
12906;SDS011;6521;50.498;8.474;2023-10-09T06:42:27;24.13;;;6.57;;
12906;SDS011;6521;50.498;8.474;2023-10-09T06:47:49;11.75;;;5.20;;
12906;SDS011;6521;50.498;8.474;2023-10-09T06:50:26;8.27;;;5.30;;
12906;SDS011;6521;50.498;8.474;2023-10-09T06:53:17;10.63;;;5.30;;
12906;SDS011;6521;50.498;8.474;2023-10-09T06:55:47;8.73;;;5.22;;
12906;SDS011;6521;50.498;8.474;2023-10-09T06:58:21;11.82;;;5.88;;
12906;SDS011;6521;50.498;8.474;2023-10-09T07:00:58;9.45;;;5.65;;
12906;SDS011;6521;50.498;8.474;2023-10-09T07:03:29;8.63;;;5.88;;
12906;SDS011;6521;50.498;8.474;2023-10-09T07:06:10;7.22;;;5.68;;
12906;SDS011;6521;50.498;8.474;2023-10-09T07:09:00;8.02;;;5.38;;
12906;SDS011;6521;50.498;8.474;2023-10-09T07:11:43;9.70;;;5.45;;
12906;SDS011;6521;50.498;8.474;2023-10-09T07:14:26;7.18;;;5.35;;
12906;SDS011;6521;50.498;8.474;2023-10-09T07:17:07;7.78;;;4.50;;
12906;SDS011;6521;50.498;8.474;2023-10-09T07:20:14;7.72;;;5.30;;
12906;SDS011;6521;50.498;8.474;2023-10-09T07:23:03;12.45;;;4.93;;
12906;SDS011;6521;50.498;8.474;2023-10-09T07:25:47;13.57;;;5.07;;
12906;SDS011;6521;50.498;8.474;2023-10-09T07:28:25;11.73;;;5.32;;
12906;SDS011;6521;50.498;8.474;2023-10-09T07:31:16;8.77;;;4.80;;
12906;SDS011;6521;50.498;8.474;2023-10-09T07:33:54;7.60;;;4.90;;
12906;SDS011;6521;50.498;8.474;2023-10-09T07:36:27;12.40;;;5.47;;
12906;SDS011;6521;50.498;8.474;2023-10-09T07:39:10;6.70;;;4.97;;
12906;SDS011;6521;50.498;8.474;2023-10-09T07:41:44;7.13;;;4.80;;
12906;SDS011;6521;50.498;8.474;2023-10-09T07:44:25;8.90;;;4.70;;
12906;SDS011;6521;50.498;8.474;2023-10-09T07:47:07;10.70;;;5.22;;
12906;SDS011;6521;50.498;8.474;2023-10-09T07:49:56;10.75;;;5.00;;
12906;SDS011;6521;50.498;8.474;2023-10-09T07:52:29;13.48;;;5.47;;
12906;SDS011;6521;50.498;8.474;2023-10-09T07:55:00;11.73;;;5.78;;
12906;SDS011;6521;50.498;8.474;2023-10-09T07:57:37;10.48;;;5.75;;
12906;SDS011;6521;50.498;8.474;2023-10-09T08:00:10;9.52;;;5.72;;
12906;SDS011;6521;50.498;8.474;2023-10-09T08:03:04;10.43;;;5.78;;
12906;SDS011;6521;50.498;8.474;2023-10-09T08:05:42;6.20;;;5.15;;
12906;SDS011;6521;50.498;8.474;2023-10-09T08:08:15;8.65;;;5.13;;
12906;SDS011;6521;50.498;8.474;2023-10-09T08:11:08;8.02;;;5.03;;
12906;SDS011;6521;50.498;8.474;2023-10-09T08:14:00;15.02;;;5.25;;
12906;SDS011;6521;50.498;8.474;2023-10-09T08:16:33;12.35;;;5.30;;
12906;SDS011;6521;50.498;8.474;2023-10-09T08:19:07;9.60;;;5.13;;
12906;SDS011;6521;50.498;8.474;2023-10-09T08:21:56;9.15;;;4.95;;
12906;SDS011;6521;50.498;8.474;2023-10-09T08:24:46;7.43;;;4.95;;
12906;SDS011;6521;50.498;8.474;2023-10-09T08:27:29;9.80;;;5.40;;
12906;SDS011;6521;50.498;8.474;2023-10-09T08:30:04;9.07;;;5.57;;
12906;SDS011;6521;50.498;8.474;2023-10-09T08:32:49;16.00;;;5.28;;
12906;SDS011;6521;50.498;8.474;2023-10-09T08:35:56;11.13;;;6.05;;
12906;SDS011;6521;50.498;8.474;2023-10-09T08:38:35;14.70;;;5.05;;
12906;SDS011;6521;50.498;8.474;2023-10-09T08:41:07;14.70;;;4.85;;
12906;SDS011;6521;50.498;8.474;2023-10-09T08:46:24;7.63;;;4.68;;
12906;SDS011;6521;50.498;8.474;2023-10-09T08:48:59;9.02;;;5.00;;
12906;SDS011;6521;50.498;8.474;2023-10-09T08:51:29;11.95;;;5.03;;
12906;SDS011;6521;50.498;8.474;2023-10-09T08:54:01;10.00;;;5.28;;
12906;SDS011;6521;50.498;8.474;2023-10-09T08:56:31;12.25;;;5.30;;
12906;SDS011;6521;50.498;8.474;2023-10-09T08:59:03;9.23;;;4.68;;
12906;SDS011;6521;50.498;8.474;2023-10-09T09:01:34;14.05;;;5.50;;
12906;SDS011;6521;50.498;8.474;2023-10-09T09:04:05;12.30;;;5.32;;
12906;SDS011;6521;50.498;8.474;2023-10-09T09:06:36;9.35;;;4.78;;
12906;SDS011;6521;50.498;8.474;2023-10-09T09:09:09;10.13;;;5.20;;
12906;SDS011;6521;50.498;8.474;2023-10-09T09:11:44;10.40;;;5.05;;
12906;SDS011;6521;50.498;8.474;2023-10-09T09:14:20;9.35;;;4.63;;
12906;SDS011;6521;50.498;8.474;2023-10-09T09:16:52;7.30;;;4.82;;
12906;SDS011;6521;50.498;8.474;2023-10-09T09:19:30;9.63;;;5.10;;
12906;SDS011;6521;50.498;8.474;2023-10-09T09:22:02;11.15;;;4.90;;
12906;SDS011;6521;50.498;8.474;2023-10-09T09:24:43;11.52;;;5.72;;
12906;SDS011;6521;50.498;8.474;2023-10-09T09:27:45;11.00;;;5.35;;
12906;SDS011;6521;50.498;8.474;2023-10-09T09:30:23;12.82;;;5.07;;
12906;SDS011;6521;50.498;8.474;2023-10-09T09:33:17;9.98;;;4.55;;
12906;SDS011;6521;50.498;8.474;2023-10-09T09:36:00;10.20;;;5.20;;
12906;SDS011;6521;50.498;8.474;2023-10-09T09:38:35;9.20;;;4.70;;
12906;SDS011;6521;50.498;8.474;2023-10-09T09:41:18;14.25;;;5.28;;
12906;SDS011;6521;50.498;8.474;2023-10-09T09:43:56;10.85;;;5.22;;
12906;SDS011;6521;50.498;8.474;2023-10-09T09:46:34;6.00;;;4.72;;
12906;SDS011;6521;50.498;8.474;2023-10-09T09:49:06;9.77;;;5.32;;
12906;SDS011;6521;50.498;8.474;2023-10-09T09:51:48;12.27;;;5.25;;
12906;SDS011;6521;50.498;8.474;2023-10-09T09:54:20;12.68;;;5.45;;
12906;SDS011;6521;50.498;8.474;2023-10-09T09:56:52;11.98;;;4.93;;
12906;SDS011;6521;50.498;8.474;2023-10-09T09:59:25;11.38;;;5.15;;
12906;SDS011;6521;50.498;8.474;2023-10-09T10:01:59;7.72;;;4.60;;
12906;SDS011;6521;50.498;8.474;2023-10-09T10:04:38;9.50;;;4.72;;
12906;SDS011;6521;50.498;8.474;2023-10-09T10:07:10;18.10;;;4.88;;
12906;SDS011;6521;50.498;8.474;2023-10-09T10:09:43;11.48;;;5.13;;
12906;SDS011;6521;50.498;8.474;2023-10-09T10:12:15;8.48;;;4.65;;
12906;SDS011;6521;50.498;8.474;2023-10-09T10:21:37;10.38;;;5.20;;
12906;SDS011;6521;50.498;8.474;2023-10-09T10:32:53;9.07;;;6.13;;
12906;SDS011;6521;50.498;8.474;2023-10-09T10:35:39;7.07;;;4.93;;
12906;SDS011;6521;50.498;8.474;2023-10-09T10:41:20;10.65;;;5.00;;
12906;SDS011;6521;50.498;8.474;2023-10-09T10:44:11;8.35;;;5.38;;
12906;SDS011;6521;50.498;8.474;2023-10-09T10:47:05;10.10;;;5.22;;
12906;SDS011;6521;50.498;8.474;2023-10-09T10:49:52;11.38;;;5.30;;
12906;SDS011;6521;50.498;8.474;2023-10-09T10:52:41;8.30;;;5.00;;
12906;SDS011;6521;50.498;8.474;2023-10-09T10:55:12;6.55;;;4.78;;
12906;SDS011;6521;50.498;8.474;2023-10-09T10:58:16;7.40;;;4.70;;
12906;SDS011;6521;50.498;8.474;2023-10-09T11:00:54;8.98;;;5.45;;
12906;SDS011;6521;50.498;8.474;2023-10-09T11:03:28;12.57;;;5.55;;
12906;SDS011;6521;50.498;8.474;2023-10-09T11:06:05;7.72;;;4.13;;
12906;SDS011;6521;50.498;8.474;2023-10-09T11:08:45;10.05;;;4.80;;
12906;SDS011;6521;50.498;8.474;2023-10-09T11:11:25;8.50;;;4.95;;
12906;SDS011;6521;50.498;8.474;2023-10-09T11:14:11;10.27;;;5.43;;
12906;SDS011;6521;50.498;8.474;2023-10-09T11:16:54;8.20;;;5.05;;
12906;SDS011;6521;50.498;8.474;2023-10-09T11:19:28;9.63;;;4.60;;
12906;SDS011;6521;50.498;8.474;2023-10-09T11:22:01;10.05;;;4.55;;
12906;SDS011;6521;50.498;8.474;2023-10-09T11:24:38;6.68;;;4.90;;
12906;SDS011;6521;50.498;8.474;2023-10-09T11:27:09;13.77;;;6.13;;
12906;SDS011;6521;50.498;8.474;2023-10-09T11:29:49;8.82;;;4.85;;
12906;SDS011;6521;50.498;8.474;2023-10-09T11:32:21;14.27;;;5.35;;
12906;SDS011;6521;50.498;8.474;2023-10-09T11:35:12;12.70;;;6.03;;
12906;SDS011;6521;50.498;8.474;2023-10-09T11:37:59;11.05;;;4.53;;
12906;SDS011;6521;50.498;8.474;2023-10-09T11:40:30;7.15;;;4.65;;
12906;SDS011;6521;50.498;8.474;2023-10-09T11:43:25;11.90;;;5.10;;
12906;SDS011;6521;50.498;8.474;2023-10-09T11:46:15;6.55;;;4.20;;
12906;SDS011;6521;50.498;8.474;2023-10-09T11:49:06;7.57;;;4.50;;
12906;SDS011;6521;50.498;8.474;2023-10-09T11:52:05;6.00;;;4.57;;
12906;SDS011;6521;50.498;8.474;2023-10-09T11:54:38;7.05;;;4.18;;
12906;SDS011;6521;50.498;8.474;2023-10-09T11:57:09;11.93;;;4.22;;
12906;SDS011;6521;50.498;8.474;2023-10-09T11:59:56;13.57;;;4.90;;
12906;SDS011;6521;50.498;8.474;2023-10-09T12:02:31;12.73;;;4.88;;
12906;SDS011;6521;50.498;8.474;2023-10-09T12:05:02;7.60;;;4.68;;
12906;SDS011;6521;50.498;8.474;2023-10-09T12:07:33;10.63;;;4.82;;
12906;SDS011;6521;50.498;8.474;2023-10-09T12:10:03;8.48;;;4.50;;
12906;SDS011;6521;50.498;8.474;2023-10-09T12:12:36;6.05;;;4.57;;
12906;SDS011;6521;50.498;8.474;2023-10-09T12:15:07;15.80;;;4.68;;
12906;SDS011;6521;50.498;8.474;2023-10-09T12:17:46;7.90;;;4.65;;
12906;SDS011;6521;50.498;8.474;2023-10-09T12:20:17;9.77;;;4.72;;
12906;SDS011;6521;50.498;8.474;2023-10-09T12:23:01;12.30;;;4.93;;
12906;SDS011;6521;50.498;8.474;2023-10-09T12:25:35;12.27;;;4.90;;
12906;SDS011;6521;50.498;8.474;2023-10-09T12:28:06;7.28;;;4.25;;
12906;SDS011;6521;50.498;8.474;2023-10-09T12:30:39;8.85;;;5.05;;
12906;SDS011;6521;50.498;8.474;2023-10-09T12:33:10;7.65;;;4.00;;
12906;SDS011;6521;50.498;8.474;2023-10-09T12:35:42;7.05;;;4.15;;
12906;SDS011;6521;50.498;8.474;2023-10-09T12:38:16;15.05;;;5.32;;
12906;SDS011;6521;50.498;8.474;2023-10-09T12:40:49;9.43;;;4.45;;
12906;SDS011;6521;50.498;8.474;2023-10-09T12:43:24;13.55;;;5.20;;
12906;SDS011;6521;50.498;8.474;2023-10-09T12:45:58;6.88;;;4.63;;
12906;SDS011;6521;50.498;8.474;2023-10-09T12:48:29;14.73;;;4.95;;
12906;SDS011;6521;50.498;8.474;2023-10-09T12:51:02;14.18;;;4.97;;
12906;SDS011;6521;50.498;8.474;2023-10-09T12:53:36;6.10;;;4.55;;
12906;SDS011;6521;50.498;8.474;2023-10-09T12:56:11;9.07;;;4.75;;
12906;SDS011;6521;50.498;8.474;2023-10-09T12:58:43;9.52;;;4.50;;
12906;SDS011;6521;50.498;8.474;2023-10-09T13:01:25;9.48;;;5.00;;
12906;SDS011;6521;50.498;8.474;2023-10-09T13:03:55;12.10;;;5.45;;
12906;SDS011;6521;50.498;8.474;2023-10-09T13:06:26;10.48;;;4.30;;
12906;SDS011;6521;50.498;8.474;2023-10-09T13:08:58;10.02;;;4.57;;
12906;SDS011;6521;50.498;8.474;2023-10-09T13:11:30;13.15;;;4.80;;
12906;SDS011;6521;50.498;8.474;2023-10-09T13:14:00;10.82;;;4.43;;
12906;SDS011;6521;50.498;8.474;2023-10-09T13:16:42;7.65;;;4.70;;
12906;SDS011;6521;50.498;8.474;2023-10-09T13:19:16;7.45;;;4.90;;
12906;SDS011;6521;50.498;8.474;2023-10-09T13:21:47;13.52;;;5.00;;
12906;SDS011;6521;50.498;8.474;2023-10-09T13:24:19;8.00;;;4.53;;
12906;SDS011;6521;50.498;8.474;2023-10-09T13:26:54;8.07;;;4.63;;
12906;SDS011;6521;50.498;8.474;2023-10-09T13:29:29;9.30;;;5.38;;
12906;SDS011;6521;50.498;8.474;2023-10-09T13:32:04;19.17;;;5.57;;
12906;SDS011;6521;50.498;8.474;2023-10-09T13:34:43;10.68;;;5.32;;
12906;SDS011;6521;50.498;8.474;2023-10-09T13:37:17;8.95;;;5.28;;
12906;SDS011;6521;50.498;8.474;2023-10-09T13:39:52;7.28;;;4.50;;
12906;SDS011;6521;50.498;8.474;2023-10-09T13:42:23;6.45;;;4.57;;
12906;SDS011;6521;50.498;8.474;2023-10-09T13:44:56;7.13;;;4.25;;
12906;SDS011;6521;50.498;8.474;2023-10-09T13:47:27;10.60;;;4.68;;
12906;SDS011;6521;50.498;8.474;2023-10-09T13:50:01;10.32;;;4.63;;
12906;SDS011;6521;50.498;8.474;2023-10-09T13:52:36;8.23;;;4.43;;
12906;SDS011;6521;50.498;8.474;2023-10-09T13:55:12;6.45;;;4.32;;
12906;SDS011;6521;50.498;8.474;2023-10-09T13:57:46;10.18;;;5.10;;
12906;SDS011;6521;50.498;8.474;2023-10-09T14:00:16;15.00;;;5.57;;
12906;SDS011;6521;50.498;8.474;2023-10-09T14:03:02;12.25;;;4.63;;
12906;SDS011;6521;50.498;8.474;2023-10-09T14:05:42;8.90;;;5.50;;
12906;SDS011;6521;50.498;8.474;2023-10-09T14:08:24;8.75;;;4.35;;
12906;SDS011;6521;50.498;8.474;2023-10-09T14:10:59;12.50;;;5.55;;
12906;SDS011;6521;50.498;8.474;2023-10-09T14:13:30;8.73;;;4.97;;
12906;SDS011;6521;50.498;8.474;2023-10-09T14:16:01;14.07;;;4.95;;
12906;SDS011;6521;50.498;8.474;2023-10-09T14:18:32;11.90;;;5.05;;
12906;SDS011;6521;50.498;8.474;2023-10-09T14:21:03;9.63;;;5.40;;
12906;SDS011;6521;50.498;8.474;2023-10-09T14:23:46;15.00;;;5.90;;
12906;SDS011;6521;50.498;8.474;2023-10-09T14:26:17;18.05;;;5.80;;
12906;SDS011;6521;50.498;8.474;2023-10-09T14:28:48;9.43;;;4.93;;
12906;SDS011;6521;50.498;8.474;2023-10-09T14:31:20;11.23;;;4.72;;
12906;SDS011;6521;50.498;8.474;2023-10-09T14:33:56;9.65;;;5.03;;
12906;SDS011;6521;50.498;8.474;2023-10-09T14:36:27;8.25;;;5.28;;
12906;SDS011;6521;50.498;8.474;2023-10-09T14:39:04;13.15;;;4.78;;
12906;SDS011;6521;50.498;8.474;2023-10-09T14:41:35;12.88;;;4.78;;
12906;SDS011;6521;50.498;8.474;2023-10-09T14:44:07;22.92;;;6.40;;
12906;SDS011;6521;50.498;8.474;2023-10-09T14:46:46;6.95;;;4.95;;
12906;SDS011;6521;50.498;8.474;2023-10-09T14:49:19;10.00;;;5.45;;
12906;SDS011;6521;50.498;8.474;2023-10-09T14:51:51;8.80;;;4.40;;
12906;SDS011;6521;50.498;8.474;2023-10-09T14:54:25;10.27;;;5.00;;
12906;SDS011;6521;50.498;8.474;2023-10-09T14:56:56;14.45;;;4.95;;
12906;SDS011;6521;50.498;8.474;2023-10-09T14:59:27;14.57;;;5.65;;
12906;SDS011;6521;50.498;8.474;2023-10-09T15:01:58;12.77;;;5.22;;
12906;SDS011;6521;50.498;8.474;2023-10-09T15:04:29;19.13;;;6.10;;
12906;SDS011;6521;50.498;8.474;2023-10-09T15:07:00;8.07;;;5.47;;
12906;SDS011;6521;50.498;8.474;2023-10-09T15:09:36;10.95;;;5.70;;
12906;SDS011;6521;50.498;8.474;2023-10-09T15:12:10;9.07;;;4.63;;
12906;SDS011;6521;50.498;8.474;2023-10-09T15:14:42;14.93;;;5.18;;
12906;SDS011;6521;50.498;8.474;2023-10-09T15:17:13;20.63;;;5.25;;
12906;SDS011;6521;50.498;8.474;2023-10-09T15:19:47;13.93;;;5.28;;
12906;SDS011;6521;50.498;8.474;2023-10-09T15:22:18;16.25;;;6.00;;
12906;SDS011;6521;50.498;8.474;2023-10-09T15:24:51;16.70;;;6.30;;
12906;SDS011;6521;50.498;8.474;2023-10-09T15:27:22;15.45;;;5.68;;
12906;SDS011;6521;50.498;8.474;2023-10-09T15:29:54;14.32;;;5.47;;
12906;SDS011;6521;50.498;8.474;2023-10-09T15:32:25;11.85;;;5.53;;
12906;SDS011;6521;50.498;8.474;2023-10-09T15:34:56;8.27;;;4.80;;
12906;SDS011;6521;50.498;8.474;2023-10-09T15:37:27;12.43;;;5.15;;
12906;SDS011;6521;50.498;8.474;2023-10-09T15:39:57;14.40;;;5.55;;
12906;SDS011;6521;50.498;8.474;2023-10-09T15:42:35;18.10;;;5.32;;
12906;SDS011;6521;50.498;8.474;2023-10-09T15:45:07;12.20;;;4.45;;
12906;SDS011;6521;50.498;8.474;2023-10-09T15:47:39;7.30;;;4.72;;
12906;SDS011;6521;50.498;8.474;2023-10-09T15:50:10;9.70;;;4.75;;
12906;SDS011;6521;50.498;8.474;2023-10-09T15:52:43;12.27;;;5.15;;
12906;SDS011;6521;50.498;8.474;2023-10-09T15:55:13;10.38;;;5.22;;
12906;SDS011;6521;50.498;8.474;2023-10-09T15:57:44;11.55;;;5.30;;
12906;SDS011;6521;50.498;8.474;2023-10-09T16:00:15;12.23;;;5.15;;
12906;SDS011;6521;50.498;8.474;2023-10-09T16:02:49;14.70;;;5.07;;
12906;SDS011;6521;50.498;8.474;2023-10-09T16:05:23;19.73;;;6.80;;
12906;SDS011;6521;50.498;8.474;2023-10-09T16:07:57;13.25;;;8.50;;
12906;SDS011;6521;50.498;8.474;2023-10-09T16:10:28;9.13;;;5.30;;
12906;SDS011;6521;50.498;8.474;2023-10-09T16:12:58;14.52;;;5.57;;
12906;SDS011;6521;50.498;8.474;2023-10-09T16:15:30;18.10;;;5.82;;
12906;SDS011;6521;50.498;8.474;2023-10-09T16:18:02;17.00;;;6.05;;
12906;SDS011;6521;50.498;8.474;2023-10-09T16:20:36;11.63;;;5.22;;